Time;durP1;ratioP1;P1;durP2;ratioP2;P2;SDS_P1;SDS_P2;PMS_P1;PMS_P2;Temp;Humidity;BMP_temperature;BMP_pressure;BME280_temperature;BME280_humidity;BME280_pressure;Samples;Min_cycle;Max_cycle;Signal;HPM_P1;HPM_P2
2023/03/14 00:01:16;;;;;;;;;;;;;;;12.21;73.64;98902.47;20463419;28;19923;-56
2023/03/14 00:11:38;;;;;;;;;;;;;;;12.23;73.99;98903.19;20466453;28;20335;-57
2023/03/14 00:21:59;;;;;;;;;;;;;;;12.20;74.33;98886.06;20474520;28;19958;-56
2023/03/14 00:32:21;;;;;;;;;;;;;;;12.20;74.54;98891.25;20473421;28;19964;-56
2023/03/14 00:42:42;;;;;;;;;;;;;;;12.19;74.85;98889.63;20450059;28;19930;-58
2023/03/14 00:53:03;;;;;;;;;;;;;;;12.22;75.88;98873.84;20464656;28;19922;-57
2023/03/14 01:03:25;;;;;;;;;;;;;;;12.33;76.69;98866.16;20482301;28;19969;-57
2023/03/14 01:13:46;;;;;;;;;;;;;;;12.39;77.63;98847.59;20433835;28;20417;-56
2023/03/14 01:24:11;;;;;;;;;;;;;;;12.43;78.49;98836.06;20449925;28;20327;-57
2023/03/14 01:34:32;;;;;;;;;;;;;;;12.42;78.60;98824.03;20482625;28;19922;-59
2023/03/14 01:44:58;;;;;;;;;;;;;;;12.44;79.17;98814.38;20456284;28;19977;-57
2023/03/14 01:55:24;;;;;;;;;;;;;;;12.47;79.39;98783.00;20460858;28;19931;-56
2023/03/14 02:05:46;;;;;;;;;;;;;;;12.42;79.09;98759.19;20455637;28;20279;-58
2023/03/14 02:16:08;;;;;;;;;;;;;;;12.43;79.58;98775.56;20447672;28;19926;-58
2023/03/14 02:26:43;;;;;;;;;;;;;;;12.44;79.29;98770.28;20434384;28;19926;-57
2023/03/14 02:37:04;;;;;;;;;;;;;;;12.50;78.76;98800.97;20455695;28;19947;-58
2023/03/14 02:47:28;;;;;;;;;;;;;;;12.39;74.42;98824.25;20466256;28;19930;-57
2023/03/14 02:57:50;;;;;;;;;;;;;;;12.10;74.52;98830.59;20468194;28;19937;-57
2023/03/14 03:08:11;;;;;;;;;;;;;;;11.73;78.55;98821.06;20471165;28;19990;-57
2023/03/14 03:18:32;;;;;;;;;;;;;;;11.12;82.55;98812.13;20441981;28;19922;-57
2023/03/14 03:28:54;;;;;;;;;;;;;;;10.78;83.34;98773.81;20457538;28;19978;-57
2023/03/14 03:39:15;;;;;;;;;;;;;;;10.63;84.70;98790.31;20462399;28;20078;-57
2023/03/14 03:49:36;;;;;;;;;;;;;;;10.45;86.08;98788.88;20467492;28;20616;-56
2023/03/14 03:59:58;;;;;;;;;;;;;;;10.42;88.19;98772.72;20450105;28;20377;-56
2023/03/14 04:10:19;;;;;;;;;;;;;;;10.54;87.74;98764.19;20470293;28;19923;-56
2023/03/14 04:20:41;;;;;;;;;;;;;;;10.72;87.78;98770.78;20471428;28;20345;-57
2023/03/14 04:31:09;;;;;;;;;;;;;;;10.89;86.45;98776.56;20461460;28;19927;-55
2023/03/14 04:41:30;;;;;;;;;;;;;;;10.99;84.86;98767.25;20468685;28;19926;-57
2023/03/14 04:51:52;;;;;;;;;;;;;;;10.98;84.12;98770.78;20458597;28;19922;-56
2023/03/14 05:02:14;;;;;;;;;;;;;;;10.91;84.12;98769.50;20468529;28;20329;-57
2023/03/14 05:12:35;;;;;;;;;;;;;;;10.97;82.47;98752.75;20460597;28;20338;-56
2023/03/14 05:22:56;;;;;;;;;;;;;;;10.89;82.46;98749.84;20466666;28;19923;-56
2023/03/14 05:33:18;;;;;;;;;;;;;;;10.84;82.78;98732.00;20477498;28;19954;-56
2023/03/14 05:43:39;;;;;;;;;;;;;;;10.90;82.83;98746.31;20460305;28;19926;-58
2023/03/14 05:54:01;;;;;;;;;;;;;;;10.86;83.23;98732.75;20454329;28;19927;-57
2023/03/14 06:04:22;;;;;;;;;;;;;;;10.77;84.90;98735.94;20467430;28;20372;-58
2023/03/14 06:14:43;;;;;;;;;;;;;;;10.65;86.06;98741.06;20456883;28;20465;-55
2023/03/14 06:25:05;;;;;;;;;;;;;;;10.71;85.01;98738.91;20453891;28;19926;-58
2023/03/14 06:35:27;;;;;;;;;;;;;;;10.60;87.06;98733.59;20454517;28;20021;-57
2023/03/14 06:45:48;;;;;;;;;;;;;;;10.60;85.90;98728.41;20450296;28;19980;-57
2023/03/14 06:56:10;;;;;;;;;;;;;;;10.77;84.30;98735.09;20473211;28;19950;-57
2023/03/14 07:06:32;;;;;;;;;;;;;;;10.88;84.03;98743.00;20462386;28;19930;-55
2023/03/14 07:16:53;;;;;;;;;;;;;;;10.97;83.09;98752.75;20461079;28;19982;-56
2023/03/14 07:27:15;;;;;;;;;;;;;;;11.02;84.30;98754.09;20454836;28;19923;-56
2023/03/14 07:37:36;;;;;;;;;;;;;;;10.98;84.79;98762.19;20458843;28;19926;-56
2023/03/14 07:47:58;;;;;;;;;;;;;;;10.93;85.36;98772.81;20486269;28;19990;-57
2023/03/14 07:58:21;;;;;;;;;;;;;;;10.95;85.72;98781.31;20464870;28;19935;-57
2023/03/14 08:08:43;;;;;;;;;;;;;;;11.06;84.75;98796.16;20475718;28;19922;-57
2023/03/14 08:19:04;;;;;;;;;;;;;;;11.00;86.25;98822.44;20471770;28;19922;-57
2023/03/14 08:29:25;;;;;;;;;;;;;;;11.02;85.81;98821.38;20445852;28;19968;-57
2023/03/14 08:39:47;;;;;;;;;;;;;;;10.22;83.70;98936.78;20465180;28;19958;-56
2023/03/14 08:50:09;;;;;;;;;;;;;;;8.75;86.04;99006.09;20449425;28;19930;-57
2023/03/14 09:00:34;;;;;;;;;;;;;;;7.87;85.93;99065.53;20463235;28;19926;-56
2023/03/14 09:10:55;;;;;;;;;;;;;;;7.18;86.41;99125.38;20463808;28;19929;-55
2023/03/14 09:21:16;;;;;;;;;;;;;;;6.39;85.89;99177.50;20470950;28;19949;-55
2023/03/14 09:31:38;;;;;;;;;;;;;;;6.15;88.86;99201.59;20462385;28;20013;-55
2023/03/14 09:42:02;;;;;;;;;;;;;;;6.15;89.22;99242.69;20462670;28;19922;-54
2023/03/14 09:52:32;;;;;;;;;;;;;;;6.05;88.66;99295.25;20453283;28;19923;-58
2023/03/14 10:02:56;;;;;;;;;;;;;;;6.10;88.19;99347.25;20465676;28;19978;-56
2023/03/14 10:13:25;;;;;;;;;;;;;;;6.20;87.98;99356.31;20455526;28;19926;-56
2023/03/14 10:23:47;;;;;;;;;;;;;;;6.28;87.89;99403.09;20440695;28;19926;-55
2023/03/14 10:34:15;;;;;;;;;;;;;;;6.52;86.64;99438.19;20439880;28;19924;-56
2023/03/14 10:44:37;;;;;;;;;;;;;;;6.70;88.44;99441.84;20453508;28;19970;-56
2023/03/14 10:55:01;;;;;;;;;;;;;;;7.11;86.34;99454.81;20473154;28;19923;-57
2023/03/14 11:05:22;;;;;;;;;;;;;;;7.41;83.71;99485.38;20468983;28;19930;-55
2023/03/14 11:15:47;;;;;;;;;;;;;;;7.67;83.27;99516.09;20464165;28;19950;-57
2023/03/14 11:26:26;;;;;;;;;;;;;;;8.01;82.69;99532.72;20473505;28;19926;-56
2023/03/14 11:37:04;;;;;;;;;;;;;;;8.28;78.53;99569.41;20467543;28;19926;-57
2023/03/14 11:47:45;;;;;;;;;;;;;;;7.99;78.14;99610.94;20472764;28;19951;-58
2023/03/14 11:58:09;;;;;;;;;;;;;;;7.92;74.38;99641.25;20461740;28;19982;-57
2023/03/14 12:08:39;;;;;;;;;;;;;;;8.07;70.88;99686.19;20472693;28;19985;-57
2023/03/14 12:19:19;;;;;;;;;;;;;;;7.97;68.27;99726.06;20466615;28;19981;-58
2023/03/14 12:29:57;;;;;;;;;;;;;;;7.91;68.78;99767.50;20464554;28;20344;-55
2023/03/14 12:40:26;;;;;;;;;;;;;;;8.03;68.88;99787.66;20456469;28;19986;-58
2023/03/14 12:51:02;;;;;;;;;;;;;;;8.08;65.10;99816.66;20471954;28;19946;-57
2023/03/14 13:01:23;;;;;;;;;;;;;;;7.85;63.12;99870.72;20464280;28;19930;-57
2023/03/14 13:11:45;;;;;;;;;;;;;;;8.11;61.76;99878.41;20466663;28;19922;-58
2023/03/14 13:22:15;;;;;;;;;;;;;;;8.09;61.60;99911.09;20483793;28;19923;-58
2023/03/14 13:32:41;;;;;;;;;;;;;;;7.89;66.83;99944.44;20463880;28;19926;-58
2023/03/14 13:43:04;;;;;;;;;;;;;;;7.75;65.48;99962.91;20460870;28;19926;-57
2023/03/14 13:53:26;;;;;;;;;;;;;;;7.90;62.09;99989.88;20458217;28;19931;-56
2023/03/14 14:03:49;;;;;;;;;;;;;;;8.02;62.10;100020.41;20457999;28;19927;-57
2023/03/14 14:14:21;;;;;;;;;;;;;;;8.02;63.83;100057.28;20443430;28;20021;-58
2023/03/14 14:24:43;;;;;;;;;;;;;;;7.95;60.61;100098.75;20440027;28;19926;-58
2023/03/14 14:35:05;;;;;;;;;;;;;;;7.93;59.75;100116.81;20453579;28;20013;-59
2023/03/14 14:45:27;;;;;;;;;;;;;;;7.83;58.53;100158.38;20455372;28;20298;-59
2023/03/14 14:55:53;;;;;;;;;;;;;;;7.75;56.63;100183.50;20451104;28;19922;-59
2023/03/14 15:06:16;;;;;;;;;;;;;;;7.97;59.45;100197.44;20444637;28;19985;-59
2023/03/14 15:16:38;;;;;;;;;;;;;;;8.11;59.73;100216.75;20456591;28;19970;-57
2023/03/14 15:27:00;;;;;;;;;;;;;;;8.25;61.12;100229.25;20454051;28;19929;-57
2023/03/14 15:37:21;;;;;;;;;;;;;;;8.21;53.92;100245.66;20449776;28;19961;-57
2023/03/14 15:47:43;;;;;;;;;;;;;;;7.89;58.83;100282.66;20461494;28;20407;-58
2023/03/14 15:58:04;;;;;;;;;;;;;;;7.80;58.71;100300.13;20457282;28;19926;-58
2023/03/14 16:08:28;;;;;;;;;;;;;;;7.51;62.52;100328.34;20475297;28;19941;-58
2023/03/14 16:18:49;;;;;;;;;;;;;;;7.81;63.14;100351.56;20465877;28;19926;-59
2023/03/14 16:29:11;;;;;;;;;;;;;;;7.86;60.70;100374.59;20463909;28;19922;-57
2023/03/14 16:39:32;;;;;;;;;;;;;;;7.60;60.65;100405.34;20447110;28;20044;-58
2023/03/14 16:49:54;;;;;;;;;;;;;;;7.21;64.16;100426.88;20475367;28;20464;-57
2023/03/14 17:00:15;;;;;;;;;;;;;;;6.95;64.91;100472.03;20463891;28;20345;-57
2023/03/14 17:10:37;;;;;;;;;;;;;;;6.64;65.15;100534.38;20456788;28;19922;-57
2023/03/14 17:21:00;;;;;;;;;;;;;;;6.23;65.74;100547.13;20463570;28;19923;-59
2023/03/14 17:31:22;;;;;;;;;;;;;;;5.76;69.67;100573.53;20467741;28;19981;-58
2023/03/14 17:41:45;;;;;;;;;;;;;;;5.45;69.61;100573.09;20461014;28;20073;-58
2023/03/14 17:52:11;;;;;;;;;;;;;;;5.47;68.65;100602.16;20461970;28;19923;-57
2023/03/14 18:02:33;;;;;;;;;;;;;;;5.35;68.68;100627.94;20462893;28;19923;-57
2023/03/14 18:12:56;;;;;;;;;;;;;;;5.16;69.76;100664.09;20459393;28;19926;-58
2023/03/14 18:23:17;;;;;;;;;;;;;;;5.01;71.55;100662.53;20457567;28;20069;-57
2023/03/14 18:33:41;;;;;;;;;;;;;;;4.99;71.90;100664.28;20457393;28;19974;-57
2023/03/14 18:44:02;;;;;;;;;;;;;;;4.82;72.00;100677.25;20442565;28;20277;-57
2023/03/14 18:54:25;;;;;;;;;;;;;;;4.78;73.04;100693.50;20458160;28;19930;-57
2023/03/14 19:04:46;;;;;;;;;;;;;;;4.70;74.17;100738.88;20464518;28;19955;-57
2023/03/14 19:15:08;;;;;;;;;;;;;;;4.39;77.43;100741.66;20445046;28;19926;-58
2023/03/14 19:25:29;;;;;;;;;;;;;;;4.35;77.94;100745.09;20458248;28;20270;-57
2023/03/14 19:35:51;;;;;;;;;;;;;;;4.32;78.65;100775.84;20460614;28;20342;-57
2023/03/14 19:46:12;;;;;;;;;;;;;;;4.23;78.58;100792.09;20457013;28;19961;-58
2023/03/14 19:56:34;;;;;;;;;;;;;;;4.28;78.34;100800.63;20471613;28;20445;-56
2023/03/14 20:06:55;;;;;;;;;;;;;;;4.21;79.02;100819.44;20466831;28;20446;-58
2023/03/14 20:17:17;;;;;;;;;;;;;;;4.12;77.67;100839.94;20449887;28;20445;-57
2023/03/14 20:27:39;;;;;;;;;;;;;;;4.03;77.77;100838.28;20458034;28;19926;-57
2023/03/14 20:38:00;;;;;;;;;;;;;;;4.02;77.77;100851.09;20460150;28;19969;-58
2023/03/14 20:48:22;;;;;;;;;;;;;;;4.00;78.21;100850.22;20449773;28;20499;-56
2023/03/14 20:58:44;;;;;;;;;;;;;;;3.98;77.92;100863.03;20462507;28;19933;-57
2023/03/14 21:09:05;;;;;;;;;;;;;;;3.90;79.71;100863.94;20476347;28;20096;-58
2023/03/14 21:19:30;;;;;;;;;;;;;;;3.86;79.48;100869.91;20450664;28;19970;-57
2023/03/14 21:29:51;;;;;;;;;;;;;;;4.02;79.50;100889.47;20466391;28;19926;-57
2023/03/14 21:40:13;;;;;;;;;;;;;;;3.98;79.03;100887.78;20465417;28;19923;-58
2023/03/14 21:50:35;;;;;;;;;;;;;;;3.91;79.10;100891.22;20444666;28;19926;-58
2023/03/14 22:01:00;;;;;;;;;;;;;;;3.92;79.24;100891.19;20477317;28;19926;-56
2023/03/14 22:11:23;;;;;;;;;;;;;;;3.97;80.55;100892.03;20464366;28;19951;-58
2023/03/14 22:21:44;;;;;;;;;;;;;;;3.97;80.14;100886.91;20466102;28;19927;-59
2023/03/14 22:32:06;;;;;;;;;;;;;;;3.84;79.40;100876.72;20451130;28;20002;-58
2023/03/14 22:42:27;;;;;;;;;;;;;;;3.68;79.84;100883.56;20458084;28;20333;-57
2023/03/14 22:52:49;;;;;;;;;;;;;;;3.59;79.34;100893.81;20447498;28;19997;-58
2023/03/14 23:03:10;;;;;;;;;;;;;;;3.56;79.15;100908.31;20465815;28;20310;-57
2023/03/14 23:13:32;;;;;;;;;;;;;;;3.50;79.17;100909.16;20460524;28;19972;-58
2023/03/14 23:23:54;;;;;;;;;;;;;;;3.45;78.76;100916.00;20472743;28;19930;-58
2023/03/14 23:34:15;;;;;;;;;;;;;;;3.42;78.54;100915.13;20461016;28;19935;-56
2023/03/14 23:44:36;;;;;;;;;;;;;;;3.37;78.41;100932.19;20458069;28;19930;-57
2023/03/14 23:54:58;;;;;;;;;;;;;;;3.37;78.23;100927.06;20464053;28;19922;-57
